Time;durP1;ratioP1;P1;durP2;ratioP2;P2;SDS_P1;SDS_P2;PMS_P1;PMS_P2;Temp;Humidity;BMP_temperature;BMP_pressure;BME280_temperature;BME280_humidity;BME280_pressure;Samples;Min_cycle;Max_cycle;Signal;HPM_P1;HPM_P2
2021/01/05 00:00:36;;;;;;;24.70;14.97;;;-1.50;1.40;;;-1.33;100.00;94591.53;639522;221;24516;-71
2021/01/05 00:03:05;;;;;;;24.00;15.83;;;-1.60;1.40;;;-1.28;100.00;94596.34;645374;220;27671;-71
2021/01/05 00:05:33;;;;;;;21.90;14.17;;;-1.60;1.40;;;-1.27;100.00;94584.12;641576;220;26050;-72
2021/01/05 00:08:02;;;;;;;22.40;14.40;;;-1.50;1.40;;;-1.18;100.00;94588.13;640073;221;25573;-71
2021/01/05 00:10:30;;;;;;;26.20;14.23;;;-1.50;1.40;;;-1.20;100.00;94587.47;638827;221;24568;-72
2021/01/05 00:12:58;;;;;;;24.30;13.57;;;-1.50;1.40;;;-1.27;100.00;94592.83;639324;221;24586;-72
2021/01/05 00:15:27;;;;;;;26.63;14.73;;;-1.50;1.40;;;-1.31;100.00;94594.15;640485;221;24515;-72
2021/01/05 00:17:55;;;;;;;24.87;16.67;;;-1.60;1.40;;;-1.26;100.00;94589.02;639603;221;24499;-72
2021/01/05 00:20:24;;;;;;;25.73;18.23;;;-1.60;1.40;;;-1.25;100.00;94592.10;639899;221;31857;-72
2021/01/05 00:22:52;;;;;;;24.83;17.37;;;-1.60;1.40;;;-1.28;100.00;94596.86;647073;220;23413;-73
2021/01/05 00:25:21;;;;;;;20.83;15.77;;;-1.60;1.40;;;-0.99;100.00;94599.22;657223;216;26966;-72
2021/01/05 00:27:49;;;;;;;26.67;15.63;;;-1.50;1.40;;;-0.84;100.00;94601.81;666949;211;24436;-72
2021/01/05 00:30:18;;;;;;;28.80;19.00;;;-1.40;1.40;;;-0.89;100.00;94602.73;663577;211;42144;-72
2021/01/05 00:32:46;;;;;;;22.73;16.77;;;-1.40;1.40;;;-0.85;100.00;94605.80;642634;220;23504;-73
2021/01/05 00:35:15;;;;;;;23.60;16.17;;;-1.40;1.40;;;-0.60;100.00;94597.48;670442;211;24422;-73
2021/01/05 00:37:43;;;;;;;27.13;16.00;;;-1.30;1.40;;;-0.46;100.00;94599.10;670016;211;28849;-71
2021/01/05 00:40:12;;;;;;;26.33;16.00;;;-1.30;1.40;;;-0.99;100.00;94602.67;662981;211;24494;-71
2021/01/05 00:42:40;;;;;;;21.87;14.10;;;-1.50;1.40;;;-0.90;100.00;94603.36;656499;216;24651;-71
2021/01/05 00:45:09;;;;;;;22.13;14.83;;;-1.50;1.40;;;-0.69;100.00;94602.33;643878;221;24559;-73
2021/01/05 00:47:38;;;;;;;27.20;19.83;;;-1.40;1.40;;;-0.45;100.00;94604.70;651401;215;31733;-72
2021/01/05 00:50:07;;;;;;;21.80;16.60;;;-1.40;1.40;;;-0.31;100.00;94602.36;657644;215;29852;-72
2021/01/05 00:55:11;;;;;;;27.23;19.90;;;-1.30;1.40;;;-0.31;100.00;94613.34;648466;212;31577;-73
2021/01/05 00:57:39;;;;;;;26.77;17.20;;;-1.30;1.40;;;-0.66;100.00;94611.87;641854;221;26065;-72
2021/01/05 01:00:09;;;;;;;23.90;17.40;;;-1.40;1.40;;;-0.96;100.00;94622.13;641889;221;24515;-73
2021/01/05 01:02:37;;;;;;;26.33;18.80;;;-1.40;1.40;;;-1.00;100.00;94622.08;642723;221;24520;-73
2021/01/05 01:05:07;;;;;;;22.53;15.60;;;-1.40;1.40;;;-1.19;100.00;94622.47;642412;221;24499;-73
2021/01/05 01:07:35;;;;;;;26.50;17.40;;;-1.50;1.40;;;-1.18;100.00;94620.67;640659;221;24520;-73
2021/01/05 01:10:04;;;;;;;25.10;16.27;;;-1.50;1.40;;;-1.20;100.00;94618.47;642766;221;24515;-72
2021/01/05 01:12:32;;;;;;;21.00;14.43;;;-1.60;1.40;;;-1.25;100.00;94615.39;643553;221;24504;-73
2021/01/05 01:15:01;;;;;;;22.67;15.27;;;-1.50;1.40;;;-1.28;100.00;94614.47;643540;221;24592;-72
2021/01/05 01:17:29;;;;;;;21.33;13.50;;;-1.50;1.40;;;-0.96;100.00;94615.89;640063;221;24492;-73
2021/01/05 01:19:58;;;;;;;26.27;18.58;;;-1.40;1.40;;;-1.09;100.00;94611.20;635614;221;32232;-73
2021/01/05 01:22:26;;;;;;;27.58;20.02;;;-1.40;1.40;;;-1.01;100.00;94607.98;633347;220;31855;-72
2021/01/05 01:24:54;;;;;;;23.73;17.57;;;-1.40;1.40;;;-1.04;100.00;94605.98;640288;221;23473;-72
2021/01/05 01:27:23;;;;;;;26.92;19.50;;;-1.50;1.40;;;-1.01;100.00;94608.67;637475;221;31757;-73
2021/01/05 01:29:51;;;;;;;27.40;17.27;;;-1.50;1.40;;;-0.92;100.00;94612.66;638510;221;23517;-72
2021/01/05 01:32:19;;;;;;;25.97;14.97;;;-1.50;1.40;;;-0.96;100.00;94615.04;637691;221;33159;-73
2021/01/05 01:34:48;;;;;;;19.90;15.17;;;-1.50;1.40;;;-0.90;100.00;94613.42;642689;221;24513;-72
2021/01/05 01:37:17;;;;;;;26.33;17.40;;;-1.40;1.40;;;-1.03;100.00;94609.77;640734;221;25020;-73
2021/01/05 01:39:45;;;;;;;24.43;15.67;;;-1.40;1.40;;;-1.06;100.00;94609.95;640157;220;24972;-72
2021/01/05 01:42:13;;;;;;;21.87;14.13;;;-1.40;1.40;;;-1.05;100.00;94606.24;641041;221;27896;-73
2021/01/05 01:44:42;;;;;;;23.03;15.50;;;-1.50;1.40;;;-1.07;100.00;94603.52;639026;221;24519;-73
2021/01/05 01:47:14;;;;;;;29.80;17.13;;;-1.50;1.40;;;-1.11;100.00;94601.52;639447;221;24529;-73
2021/01/05 01:49:45;;;;;;;30.73;17.70;;;-1.50;1.40;;;-1.12;100.00;94599.94;641921;221;24516;-72
2021/01/05 01:52:13;;;;;;;29.27;19.58;;;-1.50;1.40;;;-0.90;100.00;94603.47;635049;221;32490;-73
2021/01/05 01:55:04;;;;;;;29.33;17.90;;;-1.50;1.40;;;-0.85;100.00;94601.97;641283;221;23509;-73
2021/01/05 01:57:52;;;;;;;24.70;18.60;;;-1.40;1.40;;;-0.56;100.00;94603.80;646161;212;31643;-72
2021/01/05 02:00:24;;;;;;;29.53;19.20;;;-1.40;1.40;;;-0.99;100.00;94606.02;639930;221;23498;-72
2021/01/05 02:03:09;;;;;;;30.02;20.70;;;-1.50;1.40;;;-1.06;100.00;94602.56;635959;220;31939;-73
2021/01/05 02:05:56;;;;;;;28.52;20.45;;;-1.50;1.40;;;-1.04;100.00;94606.09;649464;216;31677;-73
2021/01/05 02:08:31;;;;;;;32.40;17.60;;;-1.50;1.40;;;-1.11;100.00;94607.84;642484;220;23490;-74
2021/01/05 02:11:22;;;;;;;25.57;16.87;;;-1.60;1.40;;;-1.08;100.00;94602.23;639407;220;24500;-73
2021/01/05 02:14:16;;;;;;;31.02;19.77;;;-1.60;1.40;;;-1.04;100.00;94603.86;647813;216;31553;-73
2021/01/05 02:17:11;;;;;;;23.03;16.17;;;-1.60;1.40;;;-1.15;100.00;94606.28;640620;220;24581;-73
2021/01/05 02:19:53;;;;;;;27.58;19.27;;;-1.60;1.40;;;-1.32;100.00;94602.75;647696;216;31622;-72
2021/01/05 02:25:09;;;;;;;29.58;20.15;;;-1.50;1.40;;;-1.03;100.00;94604.50;648045;212;31570;-72
2021/01/05 02:27:39;;;;;;;24.00;16.60;;;-1.60;1.40;;;-0.71;100.00;94599.02;643572;220;23472;-73
2021/01/05 02:30:07;;;;;;;25.10;16.63;;;-1.50;1.40;;;-0.97;100.00;94603.81;639054;221;25124;-73
2021/01/05 02:33:00;;;;;;;24.53;16.60;;;-1.60;1.40;;;-1.12;100.00;94607.38;643275;221;24566;-73
2021/01/05 02:35:50;;;;;;;26.17;19.70;;;-1.60;1.40;;;-0.67;100.00;94599.30;646074;216;31626;-73
2021/01/05 02:38:56;;;;;;;28.37;19.20;;;-1.50;1.40;;;-0.48;100.00;94597.44;651748;218;23512;-73
2021/01/05 02:42:08;;;;;;;27.75;19.50;;;-1.40;1.40;;;-0.60;100.00;94601.22;648559;216;31586;-73
2021/01/05 02:44:47;;;;;;;27.07;17.63;;;-1.40;1.40;;;-0.41;100.00;94597.59;642957;221;23672;-73
2021/01/05 02:47:37;;;;;;;29.37;19.47;;;-1.40;1.40;;;-0.74;100.00;94590.11;639118;221;25039;-72
2021/01/05 02:50:55;;;;;;;27.87;19.98;;;-1.50;1.40;;;-1.03;100.00;94588.81;646971;212;31779;-73
2021/01/05 02:53:43;;;;;;;29.20;20.92;;;-1.60;1.40;;;-1.13;100.00;94583.80;646940;212;31564;-72
2021/01/05 02:56:39;;;;;;;31.58;23.58;;;-1.70;1.40;;;-1.08;100.00;94583.03;645800;218;31786;-72
2021/01/05 02:59:25;;;;;;;30.58;21.25;;;-1.60;1.40;;;-0.79;100.00;94579.19;650923;214;31601;-72
2021/01/05 03:02:15;;;;;;;25.73;18.70;;;-1.50;1.40;;;-1.04;100.00;94586.30;641148;221;23494;-72
2021/01/05 03:04:53;;;;;;;29.87;20.30;;;-1.60;1.40;;;-0.74;100.00;94580.79;647380;212;31602;-71
2021/01/05 03:07:22;;;;;;;31.90;20.67;;;-1.50;1.40;;;-0.46;100.00;94576.91;640382;220;23585;-71
2021/01/05 03:09:57;;;;;;;28.80;17.50;;;-1.50;1.40;;;-0.52;100.00;94578.30;641777;221;28819;-72
2021/01/05 03:12:31;;;;;;;32.47;18.00;;;-1.50;1.40;;;-0.82;99.95;94576.55;640626;221;24526;-72
2021/01/05 03:15:22;;;;;;;25.97;16.47;;;-1.60;1.40;;;-1.01;100.00;94579.30;639030;220;24517;-71
2021/01/05 03:18:00;;;;;;;31.45;20.62;;;-1.60;1.40;;;-0.76;100.00;94579.47;647991;212;31653;-73
2021/01/05 03:20:29;;;;;;;29.47;17.83;;;-1.60;1.40;;;-0.83;100.00;94581.92;638594;221;24607;-72
2021/01/05 03:22:59;;;;;;;30.33;19.77;;;-1.60;1.40;;;-1.08;100.00;94588.08;646933;216;31718;-72
2021/01/05 03:25:28;;;;;;;34.70;19.23;;;-1.70;1.40;;;-0.98;100.00;94586.67;644377;220;23474;-73
2021/01/05 03:27:56;;;;;;;22.20;16.10;;;-1.60;1.40;;;-0.73;100.00;94589.80;671038;211;24435;-73
2021/01/05 03:30:30;;;;;;;28.83;17.33;;;-1.60;1.40;;;-0.79;100.00;94589.72;667742;211;24458;-73
2021/01/05 03:32:59;;;;;;;25.20;16.53;;;-1.60;1.40;;;-0.86;100.00;94591.16;673805;211;24974;-73
2021/01/05 03:35:27;;;;;;;28.85;20.17;;;-1.70;1.40;;;-0.61;100.00;94588.28;663968;211;31471;-72
2021/01/05 03:37:56;;;;;;;30.00;17.07;;;-1.60;1.40;;;-0.55;99.76;94586.75;670294;211;23406;-73
2021/01/05 03:40:24;;;;;;;25.17;16.60;;;-1.60;1.40;;;-0.46;99.51;94584.94;656964;211;24518;-71
2021/01/05 03:42:52;;;;;;;27.83;17.13;;;-1.60;1.40;;;-0.82;99.53;94583.84;658369;215;24465;-72
2021/01/05 03:45:21;;;;;;;29.23;20.60;;;-1.60;1.40;;;-0.84;100.00;94586.44;651130;215;31576;-72
2021/01/05 03:47:49;;;;;;;31.60;19.60;;;-1.60;1.40;;;-1.08;100.00;94583.19;631253;224;23534;-72
2021/01/05 03:50:18;;;;;;;26.63;16.93;;;-1.70;1.40;;;-0.88;100.00;94585.82;631249;225;24782;-72
2021/01/05 03:52:46;;;;;;;30.13;18.47;;;-1.70;1.40;;;-0.80;100.00;94588.33;626214;224;24551;-72
2021/01/05 03:55:14;;;;;;;22.63;15.03;;;-1.70;1.40;;;-1.07;100.00;94582.72;627740;225;24608;-72
2021/01/05 03:57:43;;;;;;;31.00;21.33;;;-1.70;1.40;;;-1.17;100.00;94582.92;622198;224;32527;-72
2021/01/05 04:00:15;;;;;;;31.73;22.02;;;-1.70;1.40;;;-1.05;100.00;94583.48;623083;224;32127;-73
2021/01/05 04:02:44;;;;;;;30.83;21.73;;;-1.70;1.40;;;-1.13;100.00;94585.41;651041;216;32535;-72
2021/01/05 04:05:13;;;;;;;24.67;17.53;;;-1.70;1.40;;;-1.19;100.00;94583.17;641260;221;24522;-72
2021/01/05 04:07:41;;;;;;;32.37;17.87;;;-1.70;1.40;;;-1.26;100.00;94590.19;642434;220;24556;-73
2021/01/05 04:10:10;;;;;;;33.90;17.40;;;-1.70;1.40;;;-1.27;100.00;94582.67;630761;225;24587;-72
2021/01/05 04:12:38;;;;;;;32.88;21.67;;;-1.80;1.40;;;-1.26;100.00;94581.62;624618;224;31924;-72
2021/01/05 04:15:08;;;;;;;31.30;18.10;;;-1.80;1.40;;;-1.31;100.00;94583.67;655388;215;23468;-72
2021/01/05 04:17:37;;;;;;;25.37;16.67;;;-1.90;1.40;;;-1.14;100.00;94582.15;642774;220;24521;-72
2021/01/05 04:20:06;;;;;;;26.80;17.33;;;-1.80;1.40;;;-1.08;100.00;94584.09;658239;216;24461;-72
2021/01/05 04:22:35;;;;;;;25.90;18.23;;;-1.80;1.40;;;-1.02;100.00;94589.20;640919;221;24513;-73
2021/01/05 04:25:03;;;;;;;26.17;17.57;;;-1.80;1.40;;;-1.14;100.00;94592.58;643579;221;24559;-73
2021/01/05 04:27:32;;;;;;;31.00;16.90;;;-1.80;1.40;;;-1.35;100.00;94596.03;657605;213;24459;-73
2021/01/05 04:30:00;;;;;;;26.50;16.27;;;-1.80;1.40;;;-1.52;100.00;94594.19;644012;219;24518;-72
2021/01/05 04:32:29;;;;;;;31.90;18.67;;;-1.90;1.40;;;-1.48;100.00;94595.89;645436;220;24586;-72
2021/01/05 04:34:57;;;;;;;24.23;16.57;;;-1.90;1.40;;;-1.45;100.00;94592.26;659117;215;24498;-72
2021/01/05 04:37:25;;;;;;;25.93;16.07;;;-1.90;1.40;;;-1.34;100.00;94596.72;656317;215;25549;-72
2021/01/05 04:39:54;;;;;;;27.60;15.10;;;-1.90;1.40;;;-1.04;100.00;94595.03;642318;219;24520;-72
2021/01/05 04:42:33;;;;;;;27.03;16.97;;;-1.80;1.40;;;-1.03;100.00;94596.63;631277;225;24587;-71
2021/01/05 04:45:01;;;;;;;28.53;17.03;;;-1.80;1.40;;;-0.93;100.00;94599.91;629689;224;26654;-73
2021/01/05 04:50:07;;;;;;;30.23;20.30;;;-1.80;1.40;;;-1.01;99.71;94608.30;647640;212;31618;-72
2021/01/05 04:52:40;;;;;;;28.80;17.03;;;-1.80;1.40;;;-1.16;100.00;94613.34;642800;221;23498;-71
2021/01/05 04:55:16;;;;;;;29.98;19.33;;;-1.80;1.40;;;-1.22;100.00;94613.94;633531;221;31888;-71
2021/01/05 04:57:44;;;;;;;31.97;19.07;;;-1.90;1.40;;;-1.35;100.00;94609.63;641520;219;23573;-72
2021/01/05 05:00:21;;;;;;;24.30;16.80;;;-1.90;1.40;;;-1.44;100.00;94609.87;666222;211;24571;-71
2021/01/05 05:02:54;;;;;;;25.87;14.33;;;-1.90;1.40;;;-1.60;100.00;94614.92;671742;211;24485;-72
2021/01/05 05:05:44;;;;;;;26.30;15.87;;;-2.00;1.40;;;-1.69;100.00;94614.11;668066;211;24792;-73
2021/01/05 05:08:37;;;;;;;26.03;15.37;;;-2.00;1.40;;;-1.57;100.00;94615.28;650523;216;30757;-72
2021/01/05 05:11:04;;;;;;;25.70;15.73;;;-2.00;1.40;;;-1.62;100.00;94615.77;656821;215;24483;-72
2021/01/05 05:13:50;;;;;;;28.42;18.58;;;-2.00;1.40;;;-1.68;100.00;94612.27;645685;219;32131;-72
2021/01/05 05:16:20;;;;;;;30.90;16.83;;;-2.00;1.40;;;-1.58;100.00;94612.87;655248;216;23444;-72
2021/01/05 05:19:23;;;;;;;24.43;15.47;;;-2.00;1.40;;;-1.58;100.00;94609.11;638999;220;24523;-72
2021/01/05 05:22:25;;;;;;;25.95;18.98;;;-2.00;1.40;;;-1.49;100.00;94611.33;647314;216;31603;-73
2021/01/05 05:25:05;;;;;;;28.83;19.25;;;-2.00;1.40;;;-1.42;100.00;94615.26;644909;216;31590;-73
2021/01/05 05:27:40;;;;;;;25.10;17.40;;;-2.00;1.40;;;-1.43;100.00;94616.20;640733;221;23542;-72
2021/01/05 05:30:10;;;;;;;24.30;15.53;;;-2.00;1.40;;;-1.59;100.00;94628.97;641281;221;24539;-72
2021/01/05 05:32:55;;;;;;;23.17;15.10;;;-2.10;1.40;;;-1.62;100.00;94632.65;641657;220;24516;-72
2021/01/05 05:36:19;;;;;;;29.20;18.77;;;-2.10;1.40;;;-1.58;100.00;94630.58;648454;212;31621;-72
2021/01/05 05:39:26;;;;;;;27.60;18.60;;;-2.10;1.40;;;-1.43;100.00;94626.24;637865;221;23527;-71
2021/01/05 05:42:06;;;;;;;30.95;19.55;;;-2.00;1.40;;;-1.46;100.00;94629.62;649797;212;31754;-73
2021/01/05 05:44:53;;;;;;;26.23;16.60;;;-2.00;1.40;;;-1.53;100.00;94634.94;641737;220;24544;-72
2021/01/05 05:47:21;;;;;;;28.43;16.40;;;-2.10;1.40;;;-1.61;100.00;94642.76;641754;221;24555;-72
2021/01/05 05:49:57;;;;;;;21.00;15.67;;;-2.10;1.40;;;-1.64;100.00;94640.23;641361;220;25621;-73
2021/01/05 05:52:34;;;;;;;21.87;14.10;;;-2.20;1.40;;;-1.56;100.00;94643.87;648502;220;24553;-72
2021/01/05 05:55:04;;;;;;;23.37;14.50;;;-2.10;1.40;;;-1.60;100.00;94652.02;655780;216;24470;-72
2021/01/05 05:57:49;;;;;;;22.70;14.20;;;-2.10;1.40;;;-1.51;99.97;94647.23;652090;215;24487;-73
2021/01/05 06:00:23;;;;;;;27.43;17.93;;;-2.00;1.40;;;-1.44;99.55;94647.45;650663;215;31954;-73
2021/01/05 06:02:50;;;;;;;27.95;19.00;;;-2.00;1.40;;;-1.52;99.52;94649.19;651305;216;32112;-72
2021/01/05 06:05:20;;;;;;;26.77;17.75;;;-2.10;1.40;;;-1.59;99.53;94652.30;647413;216;31932;-72
2021/01/05 06:07:49;;;;;;;25.73;18.50;;;-2.10;1.40;;;-1.58;99.79;94655.60;662362;211;32281;-72
2021/01/05 06:10:17;;;;;;;29.73;19.50;;;-2.10;1.40;;;-1.62;99.93;94661.56;664319;211;32019;-72
2021/01/05 06:12:46;;;;;;;27.13;17.92;;;-2.10;1.40;;;-1.70;100.00;94660.86;662932;211;42033;-72
2021/01/05 06:15:14;;;;;;;25.37;16.10;;;-2.20;1.40;;;-1.72;100.00;94656.42;670630;211;23423;-72
2021/01/05 06:17:43;;;;;;;21.57;14.60;;;-2.20;1.40;;;-1.51;100.00;94657.33;655294;216;24942;-72
2021/01/05 06:20:12;;;;;;;23.97;16.17;;;-2.20;1.40;;;-1.37;99.16;94658.31;654419;216;24496;-72
2021/01/05 06:22:40;;;;;;;21.43;12.70;;;-2.10;1.40;;;-1.33;98.55;94653.08;666860;211;25523;-72
2021/01/05 06:25:10;;;;;;;22.70;13.73;;;-2.10;1.40;;;-1.20;98.18;94656.86;654152;216;24469;-72
2021/01/05 06:27:38;;;;;;;28.10;15.93;;;-2.00;1.40;;;-1.15;97.23;94660.59;653140;216;24485;-71
2021/01/05 06:30:08;;;;;;;20.33;13.70;;;-2.00;1.40;;;-1.05;97.36;94664.05;641763;220;24531;-72
2021/01/05 06:32:36;;;;;;;24.73;16.00;;;-2.10;1.40;;;-1.01;96.58;94666.59;648026;218;24528;-72
2021/01/05 06:35:06;;;;;;;19.87;13.10;;;-2.00;1.40;;;-0.87;96.47;94665.10;670364;211;24406;-72
2021/01/05 06:37:34;;;;;;;26.50;15.10;;;-2.00;1.40;;;-0.86;96.41;94668.63;667098;211;24438;-72
2021/01/05 06:40:03;;;;;;;24.50;14.47;;;-1.90;1.40;;;-0.94;96.12;94669.53;643794;216;24541;-71
2021/01/05 06:42:31;;;;;;;25.42;17.70;;;-1.90;1.40;;;-0.90;95.97;94671.56;633825;220;31729;-72
2021/01/05 06:44:59;;;;;;;28.98;20.23;;;-1.90;1.40;;;-0.70;96.41;94672.78;648731;216;31813;-71
2021/01/05 06:47:28;;;;;;;27.47;16.23;;;-1.90;1.40;;;-0.93;95.46;94674.06;641954;221;23515;-72
2021/01/05 06:49:56;;;;;;;25.63;14.93;;;-1.90;1.40;;;-0.83;95.99;94670.83;639369;220;25621;-72
2021/01/05 06:52:25;;;;;;;22.77;13.90;;;-1.90;1.40;;;-0.60;95.77;94670.41;659124;215;24469;-72
2021/01/05 06:54:53;;;;;;;24.80;15.37;;;-1.90;1.40;;;-0.75;94.52;94676.23;657068;215;24496;-72
2021/01/05 06:57:22;;;;;;;21.90;12.97;;;-1.90;1.40;;;-0.58;95.22;94677.13;658792;215;24585;-71
2021/01/05 06:59:50;;;;;;;24.50;15.10;;;-1.80;1.40;;;-0.91;94.13;94676.98;656036;215;24498;-71
2021/01/05 07:02:18;;;;;;;25.62;17.48;;;-1.90;1.40;;;-0.81;95.83;94682.13;637575;221;31853;-72
2021/01/05 07:04:47;;;;;;;30.00;16.17;;;-1.90;1.40;;;-0.84;95.37;94685.88;656071;215;23455;-72
2021/01/05 07:07:15;;;;;;;26.13;14.13;;;-1.90;1.40;;;-0.90;95.36;94692.27;654388;215;24486;-73
2021/01/05 07:09:44;;;;;;;26.07;16.47;;;-1.90;1.40;;;-0.97;95.33;94698.39;655258;215;24522;-73
2021/01/05 07:12:12;;;;;;;33.23;15.53;;;-1.90;1.40;;;-1.06;95.88;94707.92;642504;220;27642;-72
2021/01/05 07:14:40;;;;;;;22.00;15.10;;;-2.00;1.40;;;-0.69;96.13;94703.76;641746;220;24529;-72
2021/01/05 07:17:09;;;;;;;28.03;16.23;;;-1.90;1.40;;;-0.57;95.16;94706.16;657827;215;24510;-72
2021/01/05 07:19:37;;;;;;;28.13;15.80;;;-1.80;1.40;;;-0.62;94.32;94712.17;655762;215;24468;-72
2021/01/05 07:24:40;;;;;;;29.87;18.58;;;-1.80;1.40;;;-0.50;94.50;94714.81;646859;212;42200;-72
2021/01/05 07:27:09;;;;;;;30.02;19.80;;;-1.80;1.40;;;-0.56;93.84;94717.28;635154;221;31875;-72
2021/01/05 07:29:37;;;;;;;28.23;17.30;;;-1.80;1.40;;;-0.57;94.50;94715.26;639485;221;23644;-72
2021/01/05 07:32:06;;;;;;;24.20;15.33;;;-1.70;1.40;;;-0.56;94.84;94719.16;639360;220;24544;-72
2021/01/05 07:34:37;;;;;;;25.80;16.87;;;-1.70;1.40;;;-0.56;94.43;94722.59;640807;220;25638;-73
2021/01/05 07:37:07;;;;;;;31.75;19.70;;;-1.70;1.40;;;-0.57;94.36;94725.74;633524;220;31882;-73
2021/01/05 07:39:36;;;;;;;26.70;17.87;;;-1.70;1.40;;;-0.55;94.51;94727.27;633621;221;25041;-73
2021/01/05 07:42:23;;;;;;;29.75;18.92;;;-1.70;1.40;;;-0.49;94.61;94726.96;636614;220;31675;-73
2021/01/05 07:44:52;;;;;;;29.67;17.60;;;-1.70;1.40;;;-0.54;94.77;94729.84;653729;215;23456;-73
2021/01/05 07:47:20;;;;;;;24.40;15.97;;;-1.70;1.40;;;-0.55;94.33;94733.19;658050;215;24988;-74
2021/01/05 07:49:48;;;;;;;27.87;18.47;;;-1.70;1.40;;;-0.49;94.06;94736.92;654908;215;24478;-73
2021/01/05 07:52:38;;;;;;;27.67;17.87;;;-1.60;1.40;;;-0.50;94.07;94740.36;655897;215;24485;-73
2021/01/05 07:57:41;;;;;;;29.87;19.65;;;-1.60;1.40;;;-0.49;93.99;94733.45;647764;212;42251;-73
2021/01/05 08:00:14;;;;;;;31.55;19.87;;;-1.70;1.40;;;-0.49;94.44;94742.19;633020;221;32564;-74
2021/01/05 08:02:42;;;;;;;30.55;21.17;;;-1.80;1.40;;;-0.31;94.09;94744.59;636647;220;31901;-72
2021/01/05 08:05:12;;;;;;;28.10;19.33;;;-1.70;1.40;;;-0.65;93.63;94747.13;636258;220;32394;-72
2021/01/05 08:07:41;;;;;;;26.80;15.83;;;-1.70;1.40;;;-0.84;95.39;94753.50;640874;220;23562;-73
2021/01/05 08:10:15;;;;;;;25.23;16.53;;;-1.80;1.40;;;-0.89;94.61;94747.39;639687;220;24516;-73
2021/01/05 08:12:44;;;;;;;25.83;16.40;;;-1.80;1.40;;;-0.95;94.18;94745.28;643155;221;24501;-72
2021/01/05 08:15:13;;;;;;;22.87;14.73;;;-1.80;1.40;;;-0.96;94.62;94746.28;638109;220;25629;-72
2021/01/05 08:17:41;;;;;;;23.27;14.10;;;-1.80;1.40;;;-0.84;95.43;94750.95;643256;221;24509;-72
2021/01/05 08:20:11;;;;;;;27.13;17.58;;;-1.70;1.40;;;-0.65;94.54;94752.98;633099;220;31681;-73
2021/01/05 08:22:39;;;;;;;27.87;17.00;;;-1.60;1.40;;;-0.74;94.27;94754.06;642293;220;23489;-73
2021/01/05 08:25:08;;;;;;;30.03;16.80;;;-1.70;1.40;;;-0.76;94.39;94755.72;639319;221;26623;-73
2021/01/05 08:27:37;;;;;;;23.17;14.83;;;-1.60;1.40;;;-0.79;94.91;94759.47;641878;221;27821;-72
2021/01/05 08:30:06;;;;;;;24.73;16.50;;;-1.60;1.40;;;-0.94;94.95;94760.13;638432;220;29058;-73
2021/01/05 08:32:34;;;;;;;22.50;14.10;;;-1.80;1.40;;;-1.10;95.79;94765.12;640790;221;24545;-72
2021/01/05 08:35:02;;;;;;;25.63;14.07;;;-1.80;1.40;;;-0.90;96.38;94765.47;640837;220;24496;-72
2021/01/05 08:37:31;;;;;;;21.37;14.33;;;-1.60;1.40;;;-0.77;94.88;94763.05;643188;221;24509;-74
2021/01/05 08:40:00;;;;;;;23.30;14.67;;;-1.60;1.40;;;-0.66;94.69;94769.42;631321;220;24568;-74
2021/01/05 08:42:28;;;;;;;24.03;13.00;;;-1.50;1.40;;;-0.65;94.37;94769.38;641812;220;24512;-72
2021/01/05 08:44:56;;;;;;;23.53;14.50;;;-1.50;1.40;;;-0.67;94.32;94770.63;655889;216;24482;-74
2021/01/05 08:47:25;;;;;;;23.93;15.30;;;-1.50;1.40;;;-0.53;94.07;94774.63;654790;216;25581;-73
2021/01/05 08:49:53;;;;;;;21.17;14.10;;;-1.50;1.40;;;-0.60;93.45;94771.34;642667;220;24509;-72
2021/01/05 08:52:22;;;;;;;26.75;17.02;;;-1.40;1.40;;;-0.92;93.87;94777.95;653419;215;32318;-72
2021/01/05 08:54:50;;;;;;;24.87;14.77;;;-1.60;1.40;;;-0.89;95.57;94774.95;654270;215;23958;-73
2021/01/05 08:57:19;;;;;;;27.27;18.00;;;-1.60;1.40;;;-0.85;95.50;94778.41;650725;216;31629;-73
2021/01/05 08:59:48;;;;;;;25.47;14.10;;;-1.60;1.40;;;-0.78;95.42;94770.01;655581;215;27748;-73
2021/01/05 09:02:16;;;;;;;24.83;13.97;;;-1.50;1.40;;;-0.90;95.18;94783.19;641243;221;24502;-72
2021/01/05 09:07:25;;;;;;;27.92;17.05;;;-1.60;1.40;;;-0.96;95.78;94782.61;645419;216;31930;-70
2021/01/05 09:09:53;;;;;;;23.37;14.40;;;-1.60;1.40;;;-0.83;95.42;94785.76;642189;220;23482;-70
2021/01/05 09:12:22;;;;;;;19.43;13.40;;;-1.60;1.40;;;-0.63;94.60;94786.42;641455;220;24540;-70
2021/01/05 09:14:50;;;;;;;24.90;15.47;;;-1.40;1.40;;;-0.60;94.28;94788.20;642180;220;24509;-70
2021/01/05 09:17:19;;;;;;;22.80;13.07;;;-1.50;1.40;;;-0.56;93.94;94787.23;642943;221;24558;-70
2021/01/05 09:22:21;;;;;;;27.35;16.60;;;-1.40;1.40;;;-0.62;94.01;94786.59;646800;212;31819;-69
2021/01/05 09:24:50;;;;;;;25.83;17.57;;;-1.50;1.40;;;-0.30;92.83;94784.45;635707;221;42881;-69
2021/01/05 09:27:19;;;;;;;22.20;14.00;;;-1.40;1.40;;;-0.51;92.24;94782.58;642133;220;25051;-70
2021/01/05 09:29:47;;;;;;;27.40;13.83;;;-1.40;1.40;;;-0.53;93.10;94781.02;631155;221;24519;-70
2021/01/05 09:32:16;;;;;;;23.80;14.43;;;-1.40;1.40;;;-0.41;92.84;94776.92;641103;221;24788;-70
2021/01/05 09:34:44;;;;;;;30.20;17.40;;;-1.40;1.40;;;-0.32;92.89;94777.45;643790;220;24499;-70
2021/01/05 09:37:13;;;;;;;24.20;15.93;;;-1.30;1.40;;;-0.32;92.63;94779.95;640481;220;24511;-72
2021/01/05 09:39:41;;;;;;;26.75;17.98;;;-1.30;1.40;;;-0.56;93.03;94779.13;634769;221;31852;-70
2021/01/05 09:42:10;;;;;;;24.17;14.03;;;-1.40;1.40;;;-0.79;94.41;94778.30;641305;221;23568;-69
2021/01/05 09:47:12;;;;;;;25.73;16.55;;;-1.50;1.40;;;-0.89;95.39;94776.12;645823;212;31624;-71
2021/01/05 09:49:41;;;;;;;26.47;15.40;;;-1.50;1.40;;;-0.81;94.82;94782.11;642385;220;23526;-72
2021/01/05 09:52:09;;;;;;;23.57;15.90;;;-1.40;1.40;;;-0.67;93.88;94776.28;642527;221;24519;-71
2021/01/05 09:54:38;;;;;;;23.70;14.10;;;-1.40;1.40;;;-0.66;93.43;94777.83;641586;221;24527;-72
2021/01/05 09:57:06;;;;;;;24.33;16.73;;;-1.40;1.40;;;-0.59;92.97;94763.67;639089;220;31714;-72
2021/01/05 09:59:34;;;;;;;25.70;17.90;;;-1.40;1.40;;;-0.63;92.38;94765.28;637268;221;42562;-72
2021/01/05 10:02:03;;;;;;;23.83;15.80;;;-1.40;1.40;;;-0.63;93.17;94769.28;641395;221;24896;-71
2021/01/05 10:04:31;;;;;;;25.87;16.30;;;-1.40;1.40;;;-0.42;92.89;94763.70;638473;221;24670;-71
2021/01/05 10:07:00;;;;;;;24.63;15.47;;;-1.30;1.40;;;-0.57;92.76;94770.09;641155;221;24546;-71
2021/01/05 10:09:28;;;;;;;22.27;13.90;;;-1.30;1.40;;;-0.65;92.85;94766.81;641490;220;24757;-71
2021/01/05 10:11:57;;;;;;;28.83;15.63;;;-1.30;1.40;;;-0.57;94.11;94766.25;640142;221;24540;-71
2021/01/05 10:14:25;;;;;;;25.60;14.30;;;-1.30;1.40;;;-0.56;93.61;94757.69;640723;221;24591;-71
2021/01/05 10:16:55;;;;;;;24.30;13.63;;;-1.30;1.40;;;-0.44;93.36;94754.80;641075;220;24505;-72
2021/01/05 10:19:23;;;;;;;18.93;13.00;;;-1.30;1.40;;;-0.32;92.43;94749.28;639260;220;24531;-72
2021/01/05 10:21:52;;;;;;;21.47;14.40;;;-1.20;1.40;;;-0.21;92.62;94748.89;649547;219;24471;-71
2021/01/05 10:24:20;;;;;;;26.20;15.00;;;-1.10;1.40;;;-0.02;91.33;94743.84;648313;220;24473;-72
2021/01/05 10:26:49;;;;;;;26.70;14.50;;;-1.10;1.40;;;-0.01;90.13;94744.75;646893;220;24540;-72
2021/01/05 10:29:18;;;;;;;23.77;15.40;;;-1.00;1.40;;;-0.01;89.96;94747.89;647263;220;24561;-72
2021/01/05 10:31:46;;;;;;;29.05;18.98;;;-1.10;1.40;;;-0.05;90.56;94743.49;662720;211;31957;-72
2021/01/05 10:34:15;;;;;;;24.40;16.20;;;-1.10;1.40;;;-0.32;92.38;94741.30;672518;211;32458;-72
2021/01/05 10:36:43;;;;;;;21.90;15.37;;;-1.10;1.40;;;-0.10;91.16;94742.72;670607;211;24428;-72
2021/01/05 10:39:11;;;;;;;26.70;15.40;;;-1.10;1.40;;;-0.41;90.60;94739.59;667829;211;24432;-74
2021/01/05 10:41:40;;;;;;;25.40;14.80;;;-1.20;1.40;;;-0.49;91.26;94735.00;672569;211;24429;-72
2021/01/05 10:44:08;;;;;;;27.03;15.93;;;-1.30;1.40;;;-0.22;90.66;94731.20;666894;211;24762;-72
2021/01/05 10:46:37;;;;;;;25.03;14.80;;;-1.20;1.40;;;-0.37;90.25;94734.48;652847;219;27658;-72
2021/01/05 10:49:05;;;;;;;29.60;14.30;;;-1.10;1.40;;;-0.60;91.69;94734.55;642215;221;24503;-72
2021/01/05 10:51:33;;;;;;;17.53;12.17;;;-1.20;1.40;;;-0.61;92.18;94731.35;673957;211;24431;-72